Time;durP1;ratioP1;P1;durP2;ratioP2;P2;SDS_P1;SDS_P2;PMS_P1;PMS_P2;Temp;Humidity;BMP_temperature;BMP_pressure;BME280_temperature;BME280_humidity;BME280_pressure;Samples;Min_cycle;Max_cycle;Signal;HPM_P1;HPM_P2
2023/01/19 00:00:24;;;;;;;14.07;1.98;;;;;;;;;;5031638;28;20048;-75
2023/01/19 00:02:50;;;;;;;9.32;1.70;;;;;;;;;;5015239;28;20481;-75
2023/01/19 00:05:16;;;;;;;8.55;1.85;;;;;;;;;;5015713;28;20042;-75
2023/01/19 00:07:42;;;;;;;12.30;1.80;;;;;;;;;;5031633;28;20520;-75
2023/01/19 00:10:09;;;;;;;11.57;2.13;;;;;;;;;;5031448;28;20049;-75
2023/01/19 00:18:03;;;;;;;12.52;1.95;;;;;;;;;;5536813;22;20183;-73
2023/01/19 00:23:36;;;;;;;7.60;1.50;;;;;;;;;;4897114;29;20067;-71
2023/01/19 00:26:02;;;;;;;5.20;1.27;;;;;;;;;;4891462;29;20076;-71
2023/01/19 00:28:28;;;;;;;7.32;1.50;;;;;;;;;;4886697;29;20136;-72
2023/01/19 00:30:54;;;;;;;8.90;1.85;;;;;;;;;;4881084;29;20131;-71
2023/01/19 00:33:20;;;;;;;5.20;2.65;;;;;;;;;;4897924;29;20079;-71
2023/01/19 00:35:51;;;;;;;8.15;1.85;;;;;;;;;;4898151;29;20036;-71
2023/01/19 00:38:17;;;;;;;15.40;2.58;;;;;;;;;;4916500;29;20044;-71
2023/01/19 00:40:43;;;;;;;9.50;1.48;;;;;;;;;;4884539;29;20493;-71
2023/01/19 00:43:09;;;;;;;14.25;2.55;;;;;;;;;;4884511;29;20048;-71
2023/01/19 00:45:35;;;;;;;9.65;1.75;;;;;;;;;;4883305;29;20136;-71
2023/01/19 00:48:01;;;;;;;15.75;1.65;;;;;;;;;;4869051;29;20135;-71
2023/01/19 00:50:29;;;;;;;8.13;1.58;;;3.80;99.90;;;;;;4884353;29;20051;-71
2023/01/19 00:52:56;;;;;;;11.25;1.90;;;3.80;99.90;;;;;;4884157;29;20123;-71
2023/01/19 00:55:22;;;;;;;11.73;2.15;;;;;;;;;;4870382;29;20544;-71
2023/01/19 00:57:48;;;;;;;14.48;2.97;;;;;;;;;;4893898;29;20048;-71
2023/01/19 01:00:18;;;;;;;18.17;2.25;;;;;;;;;;4902801;29;20072;-71
2023/01/19 01:02:44;;;;;;;14.23;1.73;;;;;;;;;;4898766;29;20044;-71
2023/01/19 01:05:11;;;;;;;10.85;2.03;;;3.60;99.90;;;;;;4891641;29;20131;-72
2023/01/19 01:07:39;;;;;;;10.48;1.50;;;;;;;;;;4884280;29;20132;-71
2023/01/19 01:10:09;;;;;;;9.00;1.58;;;;;;;;;;4891606;29;20377;-72
2023/01/19 01:12:36;;;;;;;15.40;2.03;;;;;;;;;;4902345;29;20036;-71
2023/01/19 01:15:03;;;;;;;3.78;1.45;;;;;;;;;;4889564;29;20087;-71
2023/01/19 01:17:29;;;;;;;16.05;1.88;;;;;;;;;;4884114;29;20057;-72
2023/01/19 01:19:55;;;;;;;10.15;1.58;;;;;;;;;;4868595;29;20083;-71
2023/01/19 01:22:21;;;;;;;5.50;1.45;;;;;;;;;;4895145;29;20060;-71
2023/01/19 01:24:47;;;;;;;11.45;1.70;;;;;;;;;;4897652;29;20412;-71
2023/01/19 01:27:13;;;;;;;9.25;1.73;;;;;;;;;;4921234;29;20126;-71
2023/01/19 01:29:45;;;;;;;8.85;1.30;;;;;;;;;;4920901;29;20052;-71
2023/01/19 01:32:11;;;;;;;3.60;1.58;;;;;;;;;;4921496;29;20391;-71
2023/01/19 01:34:37;;;;;;;8.18;1.67;;;;;;;;;;4921187;29;20102;-71
2023/01/19 01:37:03;;;;;;;7.30;1.55;;;;;;;;;;4904562;29;20050;-71
2023/01/19 01:39:29;;;;;;;13.23;1.45;;;;;;;;;;4920300;29;20403;-71
2023/01/19 01:41:55;;;;;;;12.50;1.95;;;;;;;;;;4899160;29;20180;-71
2023/01/19 01:44:48;;;;;;;16.73;1.95;;;3.80;99.90;;;;;;4886688;29;20381;-71
2023/01/19 01:47:20;;;;;;;;;;;3.80;99.90;;;;;;4902844;29;20075;-71
2023/01/19 01:49:47;;;;;;;10.45;1.55;;;;;;;;;;4918943;29;19923;-71
2023/01/19 01:52:14;;;;;;;8.20;1.50;;;3.70;99.90;;;;;;4897914;29;20052;-71
2023/01/19 01:54:42;;;;;;;13.82;2.63;;;3.80;99.90;;;;;;4901990;29;20044;-71
2023/01/19 01:57:11;;;;;;;9.85;1.90;;;4.00;99.90;;;;;;4886197;29;20179;-71
2023/01/19 01:59:40;;;;;;;17.17;1.90;;;;;;;;;;4901954;29;20389;-74
2023/01/19 02:05:14;;;;;;;15.60;1.98;;;;;;;;;;4901549;29;20488;-74
2023/01/19 02:13:30;;;;;;;7.78;1.65;;;;;;;;;;4903639;29;20483;-74
2023/01/19 02:16:02;;;;;;;20.80;2.42;;;3.80;99.90;;;;;;4901681;29;20046;-74
2023/01/19 02:18:30;;;;;;;16.30;1.70;;;3.90;99.90;;;;;;4925392;29;20498;-74
2023/01/19 02:21:24;;;;;;;9.93;1.65;;;3.80;99.90;;;;;;4893063;29;20127;-74
2023/01/19 02:23:55;;;;;;;15.35;1.83;;;;;;;;;;4920176;29;20056;-74
2023/01/19 02:26:28;;;;;;;11.38;1.73;;;4.00;99.90;;;;;;4918736;29;20051;-74
2023/01/19 02:28:57;;;;;;;11.60;2.13;;;;;;;;;;4904349;29;20095;-74
2023/01/19 02:31:24;;;;;;;6.20;1.40;;;3.90;99.90;;;;;;4896478;29;20543;-74
2023/01/19 02:33:50;;;;;;;16.92;2.38;;;;;;;;;;4901230;29;20542;-74
2023/01/19 02:36:20;;;;;;;13.85;1.75;;;4.00;99.90;;;;;;4885481;29;20123;-74
2023/01/19 02:38:47;;;;;;;10.98;1.60;;;3.90;99.90;;;;;;4902477;29;20106;-74
2023/01/19 02:41:19;;;;;;;7.63;1.42;;;3.80;99.90;;;;;;4901365;29;20084;-74
2023/01/19 02:43:47;;;;;;;16.52;1.80;;;4.20;99.90;;;;;;4900984;29;20060;-74
2023/01/19 02:46:14;;;;;;;10.55;1.98;;;4.00;99.90;;;;;;4918006;29;20040;-75
2023/01/19 02:48:40;;;;;;;12.43;1.75;;;;;;;;;;4900960;29;20054;-74
2023/01/19 02:51:25;;;;;;;11.10;1.63;;;;;;;;;;4918048;29;20044;-74
2023/01/19 02:53:51;;;;;;;11.00;1.52;;;;;;;;;;4919187;29;20042;-74
2023/01/19 02:56:33;;;;;;;15.60;2.35;;;4.20;99.90;;;;;;4912762;29;20106;-74
2023/01/19 02:59:05;;;;;;;20.63;2.38;;;;;;;;;;4919208;29;20159;-74
2023/01/19 03:01:50;;;;;;;4.50;1.55;;;;;;;;;;4911264;29;20040;-75
2023/01/19 03:04:45;;;;;;;14.73;2.15;;;4.10;99.90;;;;;;4917528;29;20110;-75
2023/01/19 03:07:20;;;;;;;11.52;1.42;;;;;;;;;;4917077;29;20131;-74
2023/01/19 03:09:49;;;;;;;23.75;1.95;;;;;;;;;;4900661;29;20123;-74
2023/01/19 03:12:15;;;;;;;17.63;2.38;;;;;;;;;;4885040;29;20488;-74
2023/01/19 03:14:46;;;;;;;10.73;2.00;;;4.20;99.90;;;;;;4904980;29;20035;-74
2023/01/19 03:17:15;;;;;;;16.67;2.13;;;4.40;99.90;;;;;;4919452;29;20039;-74
2023/01/19 03:19:43;;;;;;;9.85;1.80;;;;;;;;;;4919164;29;20479;-74
2023/01/19 03:22:23;;;;;;;15.02;2.95;;;4.50;99.90;;;;;;4918905;29;20056;-74
2023/01/19 03:24:50;;;;;;;11.98;1.75;;;4.30;99.90;;;;;;4914001;29;20520;-74
2023/01/19 03:27:16;;;;;;;11.85;1.95;;;;;;;;;;4900198;29;20572;-74
2023/01/19 03:29:46;;;;;;;19.08;2.13;;;;;;;;;;4893179;29;20111;-74
2023/01/19 03:32:16;;;;;;;13.90;1.75;;;4.30;99.90;;;;;;4900304;29;20103;-70
2023/01/19 03:34:43;;;;;;;12.80;2.10;;;;;;;;;;4916795;29;20067;-74
2023/01/19 03:37:10;;;;;;;15.65;1.83;;;;;;;;;;4898893;29;20052;-74
2023/01/19 03:39:37;;;;;;;23.65;3.08;;;;;;;;;;4911019;29;20524;-74
2023/01/19 03:42:08;;;;;;;25.33;2.58;;;;;;;;;;4884455;29;20096;-74
2023/01/19 03:44:36;;;;;;;19.00;2.25;;;4.30;99.90;;;;;;4914808;29;20079;-71
2023/01/19 03:47:03;;;;;;;16.83;2.90;;;;;;;;;;4919097;29;20436;-71
2023/01/19 03:49:33;;;;;;;17.45;1.70;;;4.30;99.90;;;;;;4902904;29;20107;-71
2023/01/19 03:51:59;;;;;;;16.50;2.22;;;;;;;;;;4934904;29;20040;-71
2023/01/19 03:54:26;;;;;;;24.40;2.35;;;;;;;;;;4903219;29;20050;-71
2023/01/19 03:56:52;;;;;;;14.10;2.30;;;;;;;;;;4902901;29;20044;-72
2023/01/19 03:59:20;;;;;;;27.65;3.40;;;;;;;;;;4902918;29;20054;-71
2023/01/19 04:01:46;;;;;;;18.50;2.42;;;;;;;;;;4918749;29;20476;-71
2023/01/19 04:04:14;;;;;;;13.25;1.83;;;;;;;;;;4919161;29;20044;-71
2023/01/19 04:06:40;;;;;;;15.48;1.75;;;;;;;;;;4918858;29;20047;-71
2023/01/19 04:09:07;;;;;;;12.65;2.20;;;;;;;;;;4888231;29;20048;-71
2023/01/19 04:11:33;;;;;;;17.88;2.20;;;;;;;;;;4899953;29;20484;-71
2023/01/19 04:14:00;;;;;;;13.70;2.30;;;;;;;;;;4903738;29;20064;-71
2023/01/19 04:16:27;;;;;;;9.88;1.80;;;;;;;;;;4887978;29;20078;-71
2023/01/19 04:18:54;;;;;;;13.95;2.58;;;;;;;;;;4888053;29;20048;-71
2023/01/19 04:21:20;;;;;;;7.47;2.08;;;;;;;;;;4887817;29;20036;-71
2023/01/19 04:23:48;;;;;;;13.90;1.90;;;;;;;;;;4903739;29;20047;-71
2023/01/19 04:26:15;;;;;;;10.50;2.13;;;;;;;;;;4903589;29;20064;-71
2023/01/19 04:28:41;;;;;;;8.52;1.45;;;;;;;;;;4903587;29;20052;-71
2023/01/19 04:31:07;;;;;;;10.32;1.73;;;;;;;;;;4912947;29;20044;-71
2023/01/19 04:33:33;;;;;;;10.60;1.67;;;4.30;99.90;;;;;;4922122;29;20079;-71
2023/01/19 04:36:00;;;;;;;13.10;2.22;;;;;;;;;;4938028;29;20039;-71
2023/01/19 04:38:26;;;;;;;8.20;1.50;;;;;;;;;;4916623;29;20044;-71
2023/01/19 04:40:53;;;;;;;5.55;1.85;;;4.50;99.90;;;;;;4887750;29;20044;-71
2023/01/19 04:43:20;;;;;;;14.95;2.30;;;;;;;;;;4903636;29;20052;-71
2023/01/19 04:45:46;;;;;;;13.48;1.63;;;;;;;;;;4903277;29;20043;-71
2023/01/19 04:48:13;;;;;;;18.85;2.30;;;;;;;;;;4903556;29;20382;-71
2023/01/19 04:50:40;;;;;;;11.13;1.77;;;;;;;;;;4887204;29;20040;-71
2023/01/19 04:53:06;;;;;;;15.68;1.83;;;;;;;;;;4888090;29;20044;-71
2023/01/19 04:55:32;;;;;;;13.98;1.80;;;;;;;;;;4887373;29;20044;-71
2023/01/19 04:57:58;;;;;;;19.08;2.17;;;;;;;;;;4887362;29;20046;-71
2023/01/19 05:00:25;;;;;;;12.48;2.55;;;;;;;;;;4887287;29;20141;-71
2023/01/19 05:02:51;;;;;;;24.92;2.80;;;;;;;;;;4908354;29;20052;-71
2023/01/19 05:05:21;;;;;;;15.90;2.50;;;;;;;;;;4920435;29;20669;-71
2023/01/19 05:07:47;;;;;;;9.77;1.98;;;;;;;;;;4905907;29;20040;-71
2023/01/19 05:10:13;;;;;;;15.88;2.63;;;;;;;;;;4921377;29;20082;-71
2023/01/19 05:12:40;;;;;;;13.77;1.77;;;;;;;;;;4908223;29;20098;-71
2023/01/19 05:15:08;;;;;;;10.43;1.67;;;;;;;;;;4892370;29;20060;-75
2023/01/19 05:17:34;;;;;;;12.00;2.40;;;;;;;;;;4921504;29;20119;-75
2023/01/19 05:20:00;;;;;;;22.05;2.92;;;;;;;;;;4921488;29;20050;-75
2023/01/19 05:22:26;;;;;;;20.70;2.50;;;;;;;;;;4905136;29;20055;-75
2023/01/19 05:24:53;;;;;;;20.42;2.00;;;;;;;;;;4920546;29;20066;-75
2023/01/19 05:27:19;;;;;;;12.80;1.80;;;;;;;;;;4905294;29;20087;-75
2023/01/19 05:29:45;;;;;;;12.27;2.38;;;;;;;;;;4905312;29;20052;-75
2023/01/19 05:32:12;;;;;;;8.20;1.90;;;;;;;;;;4921383;29;20078;-75
2023/01/19 05:34:38;;;;;;;15.35;2.63;;;;;;;;;;4904945;29;20036;-75
2023/01/19 05:37:06;;;;;;;26.73;2.90;;;;;;;;;;4919621;29;20419;-75
2023/01/19 05:39:32;;;;;;;16.20;2.05;;;;;;;;;;4908341;29;20556;-75
2023/01/19 05:41:58;;;;;;;17.40;2.50;;;;;;;;;;4905664;29;20047;-75
2023/01/19 05:44:25;;;;;;;18.08;3.83;;;;;;;;;;4895856;29;20103;-74
2023/01/19 05:46:51;;;;;;;24.20;2.80;;;;;;;;;;4901839;29;20052;-75
2023/01/19 05:49:17;;;;;;;26.98;2.40;;;;;;;;;;4902126;29;20047;-74
2023/01/19 05:51:44;;;;;;;14.45;2.85;;;;;;;;;;4902167;29;20075;-75
2023/01/19 05:54:12;;;;;;;17.15;3.30;;;;;;;;;;4918005;29;20102;-75
2023/01/19 05:56:40;;;;;;;19.92;2.65;;;;;;;;;;4904222;29;20099;-76
2023/01/19 05:59:07;;;;;;;29.30;3.58;;;;;;;;;;4894813;29;20040;-75
2023/01/19 06:01:37;;;;;;;28.27;2.80;;;;;;;;;;4926921;29;20091;-75
2023/01/19 06:04:03;;;;;;;24.02;3.65;;;;;;;;;;4918820;29;20116;-75
2023/01/19 06:06:29;;;;;;;30.73;3.25;;;;;;;;;;4905610;29;20543;-75
2023/01/19 06:08:55;;;;;;;23.23;2.42;;;;;;;;;;4891670;29;20047;-75
2023/01/19 06:11:21;;;;;;;19.35;3.25;;;;;;;;;;4905377;29;20075;-72
2023/01/19 06:13:47;;;;;;;14.18;2.05;;;;;;;;;;4913278;29;20083;-72
2023/01/19 06:16:13;;;;;;;25.05;3.63;;;;;;;;;;4910045;29;20040;-72
2023/01/19 06:18:40;;;;;;;20.23;1.85;;;;;;;;;;4904299;29;20119;-72
2023/01/19 06:21:07;;;;;;;10.52;2.45;;;;;;;;;;4919467;29;20510;-72
2023/01/19 06:23:34;;;;;;;23.98;2.60;;;;;;;;;;4919664;29;20083;-72
2023/01/19 06:26:00;;;;;;;22.30;3.10;;;;;;;;;;4919629;29;20484;-72
2023/01/19 06:28:26;;;;;;;22.27;2.38;;;;;;;;;;4918941;29;20082;-72
2023/01/19 06:30:54;;;;;;;30.10;3.13;;;4.80;99.90;;;;;;4895775;29;20043;-72
2023/01/19 06:33:20;;;;;;;26.45;2.95;;;;;;;;;;4919754;29;20036;-72
2023/01/19 06:35:48;;;;;;;23.10;2.70;;;4.70;99.90;;;;;;4918558;29;20075;-72
2023/01/19 06:38:15;;;;;;;29.05;2.97;;;;;;;;;;4919588;29;20095;-71
2023/01/19 06:40:42;;;;;;;29.17;4.72;;;;;;;;;;4917195;29;20047;-71
2023/01/19 06:43:08;;;;;;;26.05;3.67;;;;;;;;;;4919436;29;20039;-72
2023/01/19 06:45:35;;;;;;;34.60;3.92;;;;;;;;;;4903537;29;20047;-72
2023/01/19 06:48:02;;;;;;;29.58;3.30;;;;;;;;;;4918812;29;20079;-72
2023/01/19 06:50:28;;;;;;;23.88;3.47;;;;;;;;;;4907215;29;20047;-72
2023/01/19 06:52:54;;;;;;;27.42;2.92;;;;;;;;;;4923241;29;20408;-72
2023/01/19 06:55:20;;;;;;;34.42;4.18;;;;;;;;;;4913050;29;20058;-71
2023/01/19 06:57:46;;;;;;;27.23;3.53;;;;;;;;;;4900804;29;20035;-72
2023/01/19 07:00:13;;;;;;;33.08;3.53;;;;;;;;;;4893271;29;20495;-70
2023/01/19 07:02:43;;;;;;;28.33;3.70;;;;;;;;;;4906436;29;20175;-71
2023/01/19 07:05:10;;;;;;;21.23;2.53;;;;;;;;;;4910823;29;20551;-71
2023/01/19 07:07:38;;;;;;;28.30;3.95;;;;;;;;;;4901135;29;20083;-71
2023/01/19 07:10:06;;;;;;;29.38;4.50;;;4.80;99.90;;;;;;4911004;29;20418;-71
2023/01/19 07:12:33;;;;;;;30.60;4.80;;;;;;;;;;4933080;29;20044;-71
2023/01/19 07:14:59;;;;;;;29.23;3.40;;;;;;;;;;4911035;29;20044;-71
2023/01/19 07:17:26;;;;;;;27.55;3.83;;;;;;;;;;4900400;29;20043;-70
2023/01/19 07:19:52;;;;;;;23.55;3.28;;;;;;;;;;4913322;29;20054;-70
2023/01/19 07:22:18;;;;;;;20.95;3.90;;;;;;;;;;4914782;29;20047;-71
2023/01/19 07:24:44;;;;;;;23.77;3.33;;;;;;;;;;4908986;29;20054;-71
2023/01/19 07:27:11;;;;;;;15.60;2.95;;;;;;;;;;4900127;29;20060;-71
2023/01/19 07:29:38;;;;;;;17.00;2.80;;;;;;;;;;4885070;29;20576;-72
2023/01/19 07:32:05;;;;;;;16.42;4.47;;;;;;;;;;4908231;29;20039;-71
2023/01/19 07:34:34;;;;;;;30.35;3.80;;;;;;;;;;4881144;29;20049;-70
2023/01/19 07:37:00;;;;;;;20.05;2.65;;;;;;;;;;4895747;29;20568;-70
2023/01/19 07:39:27;;;;;;;27.00;3.33;;;;;;;;;;4865183;29;20044;-71
2023/01/19 07:41:53;;;;;;;31.25;6.15;;;;;;;;;;4880610;29;20045;-72
2023/01/19 07:44:19;;;;;;;29.00;3.55;;;;;;;;;;4865142;29;20079;-71
2023/01/19 07:46:45;;;;;;;32.20;3.65;;;;;;;;;;4879597;29;20056;-72
2023/01/19 07:49:12;;;;;;;26.05;3.03;;;;;;;;;;4864946;29;20543;-72
2023/01/19 07:51:38;;;;;;;49.38;5.30;;;;;;;;;;4879667;29;20485;-72
2023/01/19 07:54:04;;;;;;;38.78;4.45;;;;;;;;;;4864304;29;20067;-72
2023/01/19 07:56:31;;;;;;;34.30;4.13;;;;;;;;;;4879590;29;20036;-72
2023/01/19 07:58:58;;;;;;;31.73;6.38;;;;;;;;;;4872105;29;20048;-72
2023/01/19 08:01:24;;;;;;;47.60;6.65;;;;;;;;;;4860134;29;20037;-72
2023/01/19 08:03:50;;;;;;;33.80;4.32;;;;;;;;;;4862435;29;20037;-72
2023/01/19 08:06:28;;;;;;;39.75;4.35;;;4.50;99.90;;;;;;4871390;29;20064;-72
2023/01/19 08:08:55;;;;;;;34.28;3.95;;;;;;;;;;4877065;29;20061;-72
2023/01/19 08:11:21;;;;;;;29.70;3.58;;;;;;;;;;4865733;29;20059;-71
2023/01/19 08:13:47;;;;;;;24.98;2.85;;;;;;;;;;4917379;29;20377;-81
2023/01/19 08:16:14;;;;;;;32.03;4.70;;;;;;;;;;4918291;29;20046;-86
2023/01/19 08:18:41;;;;;;;24.00;2.95;;;;;;;;;;4873466;29;20043;-72
2023/01/19 08:21:07;;;;;;;31.77;4.28;;;;;;;;;;4897477;29;20102;-72
2023/01/19 08:23:33;;;;;;;27.10;3.53;;;;;;;;;;4896838;29;20064;-72
2023/01/19 08:25:59;;;;;;;26.70;3.58;;;;;;;;;;4899240;29;20135;-72
2023/01/19 08:28:26;;;;;;;33.05;3.45;;;;;;;;;;4884060;29;20429;-72
2023/01/19 08:30:54;;;;;;;27.70;4.30;;;;;;;;;;4898785;29;20500;-72
2023/01/19 08:33:22;;;;;;;35.58;5.13;;;;;;;;;;4884014;29;20485;-78
2023/01/19 08:35:49;;;;;;;37.58;4.18;;;;;;;;;;4884118;29;20076;-78
2023/01/19 08:38:16;;;;;;;31.52;3.83;;;;;;;;;;4900037;29;20048;-78
2023/01/19 08:40:42;;;;;;;25.70;3.50;;;;;;;;;;4899466;29;20048;-78
2023/01/19 08:43:12;;;;;;;24.88;2.80;;;4.40;99.90;;;;;;4899392;29;20485;-80
2023/01/19 08:45:40;;;;;;;19.70;2.85;;;4.30;99.90;;;;;;4899754;29;20484;-77
2023/01/19 08:48:06;;;;;;;26.13;3.83;;;;;;;;;;4900719;29;20573;-80
2023/01/19 08:50:33;;;;;;;18.98;2.67;;;;;;;;;;4899371;29;20107;-77
2023/01/19 08:53:00;;;;;;;27.92;2.85;;;;;;;;;;4898872;29;20122;-78
2023/01/19 08:55:27;;;;;;;29.40;3.03;;;4.50;99.90;;;;;;4899073;29;20048;-77
2023/01/19 08:57:55;;;;;;;23.77;3.08;;;4.30;99.90;;;;;;4884042;29;20048;-78
2023/01/19 09:00:22;;;;;;;19.70;2.85;;;;;;;;;;4886151;29;20067;-77
2023/01/19 09:02:48;;;;;;;30.30;3.20;;;;;;;;;;4902969;29;20199;-77
2023/01/19 09:05:14;;;;;;;16.95;2.67;;;;;;;;;;4887657;29;20055;-77
2023/01/19 09:07:41;;;;;;;24.80;4.45;;;;;;;;;;4871756;29;20052;-78
2023/01/19 09:10:07;;;;;;;21.15;4.05;;;;;;;;;;4887364;29;20430;-78
2023/01/19 09:12:33;;;;;;;22.05;3.45;;;;;;;;;;4887120;29;20050;-78
2023/01/19 09:14:59;;;;;;;23.42;3.03;;;;;;;;;;4902760;29;20047;-78
2023/01/19 09:17:26;;;;;;;17.83;3.88;;;;;;;;;;4902757;29;20040;-78
2023/01/19 09:19:52;;;;;;;14.07;2.28;;;;;;;;;;4902910;29;20500;-77
2023/01/19 09:22:18;;;;;;;18.52;3.10;;;;;;;;;;4902241;29;20535;-78
2023/01/19 09:24:44;;;;;;;19.35;2.72;;;;;;;;;;4902684;29;20135;-77
2023/01/19 09:27:10;;;;;;;27.10;2.58;;;;;;;;;;4902526;29;20095;-78
2023/01/19 09:29:36;;;;;;;23.48;3.05;;;;;;;;;;4887128;29;20048;-78
2023/01/19 09:32:02;;;;;;;13.05;2.80;;;;;;;;;;4902422;29;20044;-75
2023/01/19 09:34:29;;;;;;;19.75;2.50;;;;;;;;;;4902275;29;20040;-74
2023/01/19 09:36:56;;;;;;;28.67;3.28;;;;;;;;;;4902486;29;20382;-74
2023/01/19 09:39:22;;;;;;;20.52;3.28;;;;;;;;;;4902466;29;20441;-73
2023/01/19 09:42:00;;;;;;;30.27;3.08;;;;;;;;;;4902196;29;20496;-73
2023/01/19 09:44:28;;;;;;;22.95;2.67;;;;;;;;;;4905458;29;20047;-76
2023/01/19 09:46:54;;;;;;;17.80;2.85;;;;;;;;;;4921187;29;20073;-76
2023/01/19 09:49:30;;;;;;;23.30;2.80;;;4.90;99.90;;;;;;4921182;29;20047;-77
2023/01/19 09:51:56;;;;;;;10.57;2.38;;;;;;;;;;4919306;29;20047;-77
2023/01/19 09:54:22;;;;;;;17.15;3.35;;;;;;;;;;4905413;29;20036;-77
2023/01/19 09:56:49;;;;;;;22.10;2.40;;;;;;;;;;4921481;29;20035;-77
2023/01/19 09:59:27;;;;;;;23.98;2.75;;;5.00;99.90;;;;;;4922260;29;20047;-78
2023/01/19 10:01:53;;;;;;;13.60;2.60;;;;;;;;;;4923671;29;20047;-77
2023/01/19 10:04:37;;;;;;;17.40;2.50;;;5.10;99.90;;;;;;4908579;29;20043;-76
2023/01/19 10:07:16;;;;;;;24.00;2.67;;;;;;;;;;4905651;29;20396;-77
2023/01/19 10:10:13;;;;;;;17.83;2.67;;;5.20;99.90;;;;;;4919326;29;20083;-77
2023/01/19 10:12:50;;;;;;;22.17;4.18;;;5.40;99.90;;;;;;4921053;29;20039;-76
2023/01/19 10:15:33;;;;;;;14.23;2.47;;;5.10;99.90;;;;;;4902443;29;20460;-77
2023/01/19 10:18:02;;;;;;;20.23;2.70;;;;;;;;;;4886282;29;20044;-77
2023/01/19 10:20:34;;;;;;;14.13;2.45;;;5.50;99.90;;;;;;4895686;29;20500;-77
2023/01/19 10:23:00;;;;;;;8.98;1.80;;;;;;;;;;4920144;29;20071;-77
2023/01/19 10:25:26;;;;;;;21.10;3.67;;;;;;;;;;4917228;29;20056;-76
2023/01/19 10:27:52;;;;;;;17.13;2.13;;;;;;;;;;4886270;29;20131;-78
2023/01/19 10:30:24;;;;;;;19.67;1.95;;;;;;;;;;4906853;29;20051;-78
2023/01/19 10:32:51;;;;;;;18.92;2.55;;;;;;;;;;4901802;29;20047;-77
2023/01/19 10:35:25;;;;;;;29.85;2.65;;;;;;;;;;4925726;29;20083;-77
2023/01/19 10:38:00;;;;;;;20.83;3.22;;;5.60;99.90;;;;;;4936191;29;20047;-77
2023/01/19 10:40:56;;;;;;;16.98;2.67;;;5.60;99.90;;;;;;4896388;29;20501;-76
2023/01/19 10:43:43;;;;;;;17.95;2.10;;;5.70;99.90;;;;;;4886317;29;20044;-77
2023/01/19 10:46:18;;;;;;;20.63;3.88;;;;;;;;;;4900021;29;20463;-77
2023/01/19 10:48:48;;;;;;;10.32;1.92;;;5.90;99.90;;;;;;4904630;29;20047;-78
2023/01/19 10:51:14;;;;;;;19.52;2.47;;;;;;;;;;4905801;29;20040;-77
2023/01/19 10:53:51;;;;;;;12.82;2.00;;;5.70;99.90;;;;;;4885790;29;20131;-77
2023/01/19 10:56:23;;;;;;;12.57;1.88;;;;;;;;;;4896339;29;20036;-77
2023/01/19 10:58:49;;;;;;;12.43;1.90;;;;;;;;;;4885812;29;20054;-78
2023/01/19 11:01:21;;;;;;;7.53;1.45;;;;;;;;;;4896231;29;20048;-77
2023/01/19 11:03:47;;;;;;;9.63;2.97;;;;;;;;;;4901095;29;20052;-77
2023/01/19 11:06:16;;;;;;;16.73;2.80;;;;;;;;;;4942914;29;20066;-77
2023/01/19 11:08:50;;;;;;;13.98;2.33;;;6.00;99.90;;;;;;4938952;29;20065;-78
2023/01/19 11:11:18;;;;;;;17.40;2.42;;;6.00;99.90;;;;;;4922741;29;20047;-77
2023/01/19 11:13:45;;;;;;;15.48;3.00;;;;;;;;;;4923346;29;20043;-77
2023/01/19 11:16:21;;;;;;;25.27;3.13;;;;;;;;;;4926305;29;20044;-77
2023/01/19 11:18:54;;;;;;;18.60;2.03;;;;;;;;;;4904502;29;20122;-76
2023/01/19 11:21:25;;;;;;;25.70;2.45;;;6.00;99.90;;;;;;4935159;29;20139;-77
2023/01/19 11:23:55;;;;;;;12.15;2.40;;;6.00;99.90;;;;;;4919144;29;20056;-77
2023/01/19 11:26:25;;;;;;;13.45;1.55;;;;;;;;;;4919198;29;20464;-76
2023/01/19 11:28:54;;;;;;;12.30;2.00;;;6.10;99.90;;;;;;4919492;29;20039;-76
2023/01/19 11:31:26;;;;;;;6.18;1.30;;;6.40;99.90;;;;;;4918904;29;20515;-77
2023/01/19 11:33:54;;;;;;;10.55;1.88;;;6.60;99.90;;;;;;4919472;29;20495;-76
2023/01/19 11:36:22;;;;;;;12.05;1.65;;;;;;;;;;4919484;29;20036;-77
2023/01/19 11:38:49;;;;;;;9.98;2.30;;;;;;;;;;4919195;29;20083;-76
2023/01/19 11:41:15;;;;;;;11.30;1.50;;;;;;;;;;4919260;29;20142;-76
2023/01/19 11:43:42;;;;;;;18.35;2.28;;;;;;;;;;4919160;29;20111;-75
2023/01/19 11:46:11;;;;;;;12.60;2.03;;;;;;;;;;4919683;29;20043;-76
2023/01/19 11:48:47;;;;;;;12.80;2.05;;;6.40;99.90;;;;;;4919768;29;20125;-76
2023/01/19 11:51:15;;;;;;;13.50;2.20;;;;;;;;;;4892370;29;20071;-76
2023/01/19 11:53:45;;;;;;;13.27;1.65;;;6.20;99.90;;;;;;4900075;29;20043;-76
2023/01/19 11:56:13;;;;;;;15.70;1.98;;;;;;;;;;4899856;29;20515;-75
2023/01/19 11:58:46;;;;;;;10.57;1.95;;;;;;;;;;4913060;29;20044;-76
2023/01/19 12:01:30;;;;;;;14.70;2.47;;;5.90;99.90;;;;;;4918766;29;20047;-76
2023/01/19 12:04:01;;;;;;;8.82;1.95;;;;;;;;;;4918958;29;20075;-77
2023/01/19 12:06:30;;;;;;;11.35;1.60;;;;;;;;;;4918832;29;20078;-77
2023/01/19 12:09:15;;;;;;;16.70;1.95;;;5.80;99.90;;;;;;4899861;29;20404;-76
2023/01/19 12:11:50;;;;;;;13.48;2.00;;;;;;;;;;4900068;29;20063;-77
2023/01/19 12:14:22;;;;;;;16.63;2.13;;;;;;;;;;4885234;29;20493;-77
2023/01/19 12:16:50;;;;;;;20.63;1.90;;;;;;;;;;4892669;29;20059;-76
2023/01/19 12:19:17;;;;;;;16.33;2.35;;;;;;;;;;4918687;29;20131;-77
2023/01/19 12:21:46;;;;;;;16.33;2.08;;;;;;;;;;4897514;29;20138;-77
2023/01/19 12:24:19;;;;;;;10.93;1.77;;;;;;;;;;4911717;29;20070;-77
2023/01/19 12:26:45;;;;;;;11.50;2.33;;;;;;;;;;4901176;29;20131;-77
2023/01/19 12:29:11;;;;;;;16.65;2.33;;;;;;;;;;4902382;29;20469;-77
2023/01/19 12:31:39;;;;;;;21.45;2.55;;;;;;;;;;4913639;29;20075;-77
2023/01/19 12:34:29;;;;;;;19.40;2.05;;;;;;;;;;4902509;29;20075;-77
2023/01/19 12:37:02;;;;;;;15.75;2.20;;;5.50;99.90;;;;;;4912639;29;20563;-77
2023/01/19 12:39:29;;;;;;;16.75;2.05;;;;;;;;;;4889140;29;20083;-76
2023/01/19 12:42:13;;;;;;;19.60;2.47;;;;;;;;;;4903557;29;20052;-77
2023/01/19 12:44:39;;;;;;;17.52;2.55;;;;;;;;;;4922277;29;20097;-77
2023/01/19 12:47:11;;;;;;;28.83;3.25;;;;;;;;;;4905952;29;20055;-77
2023/01/19 12:49:37;;;;;;;12.52;2.45;;;;;;;;;;4921675;29;20178;-77
2023/01/19 12:52:10;;;;;;;15.55;2.28;;;;;;;;;;4918110;29;20078;-76
2023/01/19 12:54:36;;;;;;;;;;;5.80;99.90;;;;;;4919433;29;20042;-77
2023/01/19 12:57:29;;;;;;;16.80;2.80;;;5.50;99.90;;;;;;4920631;29;19926;-77
2023/01/19 12:59:56;;;;;;;26.65;3.58;;;5.80;99.90;;;;;;4885300;29;20047;-77
2023/01/19 13:02:23;;;;;;;13.40;2.90;;;;;;;;;;4905305;29;20214;-77
2023/01/19 13:05:09;;;;;;;18.25;2.78;;;;;;;;;;4922390;29;20134;-76
2023/01/19 13:08:07;;;;;;;14.52;1.90;;;5.60;99.90;;;;;;4922328;29;20047;-76
2023/01/19 13:10:51;;;;;;;14.57;1.95;;;5.90;99.90;;;;;;4905874;29;20048;-77
2023/01/19 13:13:31;;;;;;;16.80;2.22;;;;;;;;;;4928754;29;20040;-76
2023/01/19 13:16:17;;;;;;;13.43;1.80;;;;;;;;;;4918057;29;20127;-77
2023/01/19 13:18:51;;;;;;;12.80;2.85;;;6.50;99.90;;;;;;4904380;29;20074;-70
2023/01/19 13:21:35;;;;;;;11.65;2.78;;;6.30;99.90;;;;;;4917660;29;20071;-71
2023/01/19 13:24:07;;;;;;;11.63;2.20;;;;;;;;;;4926947;29;20510;-71
2023/01/19 13:26:38;;;;;;;15.60;2.65;;;;;;;;;;4903667;29;20130;-70
2023/01/19 13:29:29;;;;;;;11.45;3.97;;;6.70;99.90;;;;;;4916288;29;20156;-71
2023/01/19 13:32:01;;;;;;;24.00;2.78;;;6.90;99.90;;;;;;4916947;29;20046;-71
2023/01/19 13:34:28;;;;;;;7.07;1.35;;;;;;;;;;4914713;29;20043;-70
2023/01/19 13:36:58;;;;;;;8.40;1.70;;;6.90;99.90;;;;;;4911800;29;20060;-71
2023/01/19 13:39:50;;;;;;;10.63;1.73;;;;;;;;;;4910823;29;20103;-71
2023/01/19 13:42:18;;;;;;;8.15;1.73;;;;;;;;;;4908863;29;20051;-71
2023/01/19 13:44:51;;;;;;;13.00;2.35;;;6.90;99.90;;;;;;4918510;29;20506;-71
2023/01/19 13:47:42;;;;;;;8.95;1.70;;;6.80;99.90;;;;;;4909298;29;20210;-71
2023/01/19 13:50:19;;;;;;;10.65;1.52;;;7.00;99.90;;;;;;4931866;29;20080;-71
2023/01/19 13:52:47;;;;;;;11.05;3.05;;;;;;;;;;4905800;29;20032;-71
2023/01/19 13:55:14;;;;;;;10.32;2.20;;;;;;;;;;4901788;29;20047;-71
2023/01/19 13:57:42;;;;;;;12.05;1.92;;;6.80;99.90;;;;;;4894165;29;20036;-71
2023/01/19 14:00:11;;;;;;;13.02;1.92;;;;;;;;;;4901909;29;20047;-71
2023/01/19 14:02:37;;;;;;;8.00;2.47;;;;;;;;;;4902642;29;20127;-71
2023/01/19 14:05:40;;;;;;;17.55;2.22;;;7.00;99.90;;;;;;4901669;29;20396;-71
2023/01/19 14:08:12;;;;;;;18.95;2.90;;;;;;;;;;4858831;29;20085;-71
2023/01/19 14:10:39;;;;;;;23.25;2.75;;;;;;;;;;4897009;29;20048;-71
2023/01/19 14:13:12;;;;;;;6.18;1.60;;;;;;;;;;4915550;29;20039;-71
2023/01/19 14:15:39;;;;;;;10.57;2.05;;;;;;;;;;4901305;29;20039;-71
2023/01/19 14:18:08;;;;;;;13.07;2.17;;;;;;;;;;4913624;29;20050;-71
2023/01/19 14:20:37;;;;;;;13.90;2.08;;;;;;;;;;4916860;29;20491;-71
2023/01/19 14:23:04;;;;;;;6.07;1.60;;;6.70;99.90;;;;;;4892573;29;20066;-71
2023/01/19 14:25:32;;;;;;;6.07;1.55;;;;;;;;;;4905337;29;20052;-71
2023/01/19 14:28:38;;;;;;;15.40;1.88;;;6.70;99.90;;;;;;4908255;29;20047;-71
2023/01/19 14:31:25;;;;;;;12.40;2.03;;;;;;;;;;4902104;29;20047;-71
2023/01/19 14:33:53;;;;;;;10.80;1.48;;;6.80;99.90;;;;;;4912919;29;20502;-71
2023/01/19 14:36:25;;;;;;;13.35;1.60;;;;;;;;;;4927085;29;20036;-71